Flight Track Log - Related Links

Times and Time Zones

All times are in EST time to prevent confusion due to time zone crossing. See the SKW5550 flight status page for this flight to view local times or setup timezone preferences in your user account.

Time Position Orientation Groundspeed Altitude Reporting Facility
EST Latitude Longitude Course Direction KTS MPH feet Rate Location/Type
Mon 08:04:18 AM 44.5008 -109.0572 159° South 123 142 6,500  Level Salt Lake Center
Mon 08:05:18 AM 44.4578 -109.0769 198° South 179 206 8,300 2,000 Climbing Salt Lake Center
Mon 08:06:00 AM 44.3660 -108.8162 154° Southeast  Level FlightAware Approximate
Mon 08:06:18 AM 44.4247 -109.0108 125° Southeast 219 252 10,500  Level Salt Lake Center
Mon 08:07:00 AM 44.2511 -108.7411 158° South  Level FlightAware Approximate
Mon 08:07:19 AM 44.3783 -108.9308 129° Southeast 255 293 12,800  Level Salt Lake Center
Mon 08:08:00 AM 44.1336 -108.6744 159° South  Level FlightAware Approximate
Mon 08:08:19 AM 44.3064 -108.8669 148° Southeast 285 328 14,100  Level Salt Lake Center
Mon 08:09:00 AM 44.0155 -108.6099 159° South  Level FlightAware Approximate
Mon 08:09:19 AM 44.2272 -108.7903 145° Southeast 314 361 15,700  Level Salt Lake Center
Mon 08:10:19 AM 44.1408 -108.7069 145° Southeast 342 394 16,900 1,300 Climbing Salt Lake Center
Mon 08:11:19 AM 44.0489 -108.6181 145° Southeast 370 426 18,300 1,450 Climbing Salt Lake Center
Mon 08:12:19 AM 43.9553 -108.5261 145° Southeast 400 460 19,800 1,438 Climbing Salt Lake Center
Mon 08:13:20 AM 43.8614 -108.4356 145° Southeast 412 474 21,200 1,289 Climbing Salt Lake Center
Mon 08:14:20 AM 43.7647 -108.3436 146° Southeast 421 484 22,400 1,200 Climbing Salt Lake Center
Mon 08:15:20 AM 43.6647 -108.2517 146° Southeast 431 496 23,600 1,100 Climbing Salt Lake Center
Mon 08:16:20 AM 43.5631 -108.1550 145° Southeast 443 510 24,600 1,000 Climbing Salt Lake Center
Mon 08:17:20 AM 43.4578 -108.0556 146° Southeast 456 525 25,600 942 Climbing Salt Lake Center
Mon 08:18:21 AM 43.3508 -107.9539 145° Southeast 466 536 26,500 793 Climbing Salt Lake Center
Mon 08:19:21 AM 43.2411 -107.8517 146° Southeast 475 547 27,200 650 Climbing Salt Lake Center
Mon 08:20:21 AM 43.1283 -107.7461 146° Southeast 488 562 27,800 650 Climbing Salt Lake Center
Mon 08:21:21 AM 43.0128 -107.6400 146° Southeast 500 575 28,500 700 Climbing Salt Lake Center
Mon 08:22:21 AM 42.8828 -107.5181 145° Southeast 506 582 29,200 645 Climbing Salt Lake Center
Mon 08:23:22 AM 42.7694 -107.4142 146° Southeast 511 588 29,800 661 Climbing Salt Lake Center
Mon 08:24:19 AM 42.6544 -107.3083 146° Southeast 515 593 30,500 610 Climbing Denver Center
Mon 08:25:20 AM 42.5203 -107.1839 146° Southeast 522 601 31,000 248 Climbing Denver Center
Mon 08:26:20 AM 42.4036 -107.0739 145° Southeast 530 610 31,000  Level Denver Center
Mon 08:27:20 AM 42.2853 -106.9636 145° Southeast 537 618 31,000  Level Denver Center
Mon 08:28:21 AM 42.1678 -106.8536 145° Southeast 536 617 31,000  Level Denver Center
Mon 08:29:21 AM 42.0708 -106.7644 146° Southeast 529 609 31,000  Level Denver Center
Mon 08:30:22 AM 41.9156 -106.6225 146° Southeast 527 606 31,000 -344 Level Denver Center
Mon 08:31:23 AM 41.8019 -106.5161 145° Southeast 522 601 30,300 -843 Descending Denver Center
Mon 08:32:23 AM 41.6781 -106.4039 146° Southeast 531 611 29,300 -650 Descending Denver Center
Mon 08:33:23 AM 41.5425 -106.2792 145° Southeast 532 612 29,000 -149 Descending Denver Center
Mon 08:34:24 AM 41.4322 -106.1789 146° Southeast 513 590 29,000  Level Denver Center
Mon 08:35:24 AM 41.3236 -106.0806 146° Southeast 498 573 29,000  Level Denver Center
Mon 08:36:25 AM 41.1969 -105.9697 147° Southeast 490 564 29,000  Level Denver Center
Mon 08:37:25 AM 41.0886 -105.8714 146° Southeast 492 566 29,000  Level Denver Center
Mon 08:38:26 AM 40.9911 -105.7836 146° Southeast 484 557 29,000  Level Denver Center
Mon 08:39:26 AM 40.8786 -105.6847 146° Southeast 485 558 29,000 -248 Level Denver Center
Mon 08:40:27 AM 40.7461 -105.5669 146° Southeast 482 555 28,500 -1,686 Descending Denver Center
Mon 08:41:27 AM 40.6367 -105.4703 146° Southeast 475 547 25,600 -2,727 Descending Denver Center
Mon 08:42:28 AM 40.5503 -105.3414 131° Southeast 477 549 23,000 -2,115 Descending Denver Center
Mon 08:43:29 AM 40.4667 -105.2189 132° Southeast 457 526 21,300 -1,636 Descending Denver Center
Mon 08:44:29 AM 40.3583 -105.1308 148° Southeast 457 526 19,700 -2,430 Descending Denver Center
Mon 08:45:30 AM 40.2581 -105.0486 148° Southeast 428 493 16,400 -3,074 Descending Denver Center
Mon 08:46:30 AM 40.1575 -104.9711 149° Southeast 420 483 13,500 -1,686 Descending Denver Center
Mon 08:47:31 AM 40.0664 -104.8969 148° Southeast 390 449 13,000 -446 Descending Denver Center
Mon 08:48:31 AM 39.9753 -104.8244 149° Southeast 385 443 12,600 -694 Descending Denver Center
Mon 08:49:32 AM 39.8769 -104.8069 172° South 363 418 11,600 -787 Descending Denver Center
Mon 08:50:33 AM 39.7894 -104.8092 181° South 280 322 11,000 -744 Descending Denver Center
Mon 08:51:33 AM 39.7192 -104.8117 182° South 255 293 10,100 -893 Descending Denver Center
Mon 08:52:34 AM 39.6478 -104.8131 181° South 258 297 9,200 -645 Descending Denver Center
Mon 08:53:34 AM 39.6353 -104.7367 102° East 256 295 8,800 -595 Descending Denver Center
Mon 08:54:35 AM 39.6797 -104.6725 48° Northeast 238 274 8,000 -541 Descending Denver Center
Mon 08:55:36 AM 39.7403 -104.6617 North 221 254 7,700 -942 Descending Denver Center
Mon 08:56:36 AM 39.7969 -104.6608 North 192 221 6,100 -1,140 Descending Denver Center
Mon 08:57:37 AM 39.8353 -104.6608 360° North 153 176 5,400 -689 Descending Denver Center

Login

Don't have an account? Register now (free) for customized features, flight alerts, and more!